sensor_id;sensor_type;location;lat;lon;timestamp;P1;durP1;ratioP1;P2;durP2;ratioP2
11267;SDS011;49397;47.474;9.416;2022-11-21T00:00:44;1.60;;;1.60;;
11267;SDS011;49397;47.474;9.416;2022-11-21T00:03:11;1.47;;;1.47;;
11267;SDS011;49397;47.474;9.416;2022-11-21T00:05:40;1.27;;;1.27;;
11267;SDS011;49397;47.474;9.416;2022-11-21T00:08:08;1.40;;;1.40;;
11267;SDS011;49397;47.474;9.416;2022-11-21T00:10:35;1.53;;;1.43;;
11267;SDS011;49397;47.474;9.416;2022-11-21T00:13:02;1.47;;;1.37;;
11267;SDS011;49397;47.474;9.416;2022-11-21T00:15:28;1.50;;;1.50;;
11267;SDS011;49397;47.474;9.416;2022-11-21T00:17:53;1.60;;;1.60;;
11267;SDS011;49397;47.474;9.416;2022-11-21T00:20:19;1.60;;;1.60;;
11267;SDS011;49397;47.474;9.416;2022-11-21T00:22:46;1.43;;;1.43;;
11267;SDS011;49397;47.474;9.416;2022-11-21T00:25:12;1.33;;;1.33;;
11267;SDS011;49397;47.474;9.416;2022-11-21T00:27:38;1.77;;;1.67;;
11267;SDS011;49397;47.474;9.416;2022-11-21T00:30:05;1.30;;;1.30;;
11267;SDS011;49397;47.474;9.416;2022-11-21T00:32:32;1.53;;;1.43;;
11267;SDS011;49397;47.474;9.416;2022-11-21T00:34:57;1.30;;;1.30;;
11267;SDS011;49397;47.474;9.416;2022-11-21T00:37:23;1.30;;;1.30;;
11267;SDS011;49397;47.474;9.416;2022-11-21T00:39:49;1.87;;;1.77;;
11267;SDS011;49397;47.474;9.416;2022-11-21T00:42:14;1.70;;;1.60;;
11267;SDS011;49397;47.474;9.416;2022-11-21T00:44:39;2.13;;;2.00;;
11267;SDS011;49397;47.474;9.416;2022-11-21T00:47:05;1.73;;;1.63;;
11267;SDS011;49397;47.474;9.416;2022-11-21T00:49:30;1.80;;;1.70;;
11267;SDS011;49397;47.474;9.416;2022-11-21T00:51:56;1.73;;;1.63;;
11267;SDS011;49397;47.474;9.416;2022-11-21T00:54:21;1.60;;;1.50;;
11267;SDS011;49397;47.474;9.416;2022-11-21T00:56:47;1.73;;;1.63;;
11267;SDS011;49397;47.474;9.416;2022-11-21T00:59:12;1.80;;;1.70;;
11267;SDS011;49397;47.474;9.416;2022-11-21T01:01:38;1.80;;;1.70;;
11267;SDS011;49397;47.474;9.416;2022-11-21T01:04:03;1.63;;;1.47;;
11267;SDS011;49397;47.474;9.416;2022-11-21T01:06:29;2.20;;;1.93;;
11267;SDS011;49397;47.474;9.416;2022-11-21T01:08:55;1.50;;;1.50;;
11267;SDS011;49397;47.474;9.416;2022-11-21T01:11:20;1.40;;;1.40;;
11267;SDS011;49397;47.474;9.416;2022-11-21T01:13:46;2.63;;;1.77;;
11267;SDS011;49397;47.474;9.416;2022-11-21T01:16:15;1.43;;;1.43;;
11267;SDS011;49397;47.474;9.416;2022-11-21T01:18:42;1.43;;;1.43;;
11267;SDS011;49397;47.474;9.416;2022-11-21T01:21:18;1.77;;;1.67;;
11267;SDS011;49397;47.474;9.416;2022-11-21T01:23:44;1.70;;;1.60;;
11267;SDS011;49397;47.474;9.416;2022-11-21T01:26:11;2.10;;;1.60;;
11267;SDS011;49397;47.474;9.416;2022-11-21T01:28:38;2.10;;;1.77;;
11267;SDS011;49397;47.474;9.416;2022-11-21T01:31:11;1.80;;;1.70;;
11267;SDS011;49397;47.474;9.416;2022-11-21T01:33:39;1.43;;;1.43;;
11267;SDS011;49397;47.474;9.416;2022-11-21T01:38:37;4.63;;;2.10;;
11267;SDS011;49397;47.474;9.416;2022-11-21T01:41:07;2.23;;;1.80;;
11267;SDS011;49397;47.474;9.416;2022-11-21T01:43:34;3.27;;;1.73;;
11267;SDS011;49397;47.474;9.416;2022-11-21T01:46:04;2.43;;;1.40;;
11267;SDS011;49397;47.474;9.416;2022-11-21T01:51:23;3.70;;;1.70;;
11267;SDS011;49397;47.474;9.416;2022-11-21T01:56:38;2.03;;;1.80;;
11267;SDS011;49397;47.474;9.416;2022-11-21T01:59:08;1.63;;;1.53;;
11267;SDS011;49397;47.474;9.416;2022-11-21T02:01:36;2.70;;;1.83;;
11267;SDS011;49397;47.474;9.416;2022-11-21T02:04:02;1.73;;;1.60;;
11267;SDS011;49397;47.474;9.416;2022-11-21T02:06:30;1.40;;;1.40;;
11267;SDS011;49397;47.474;9.416;2022-11-21T02:08:57;1.83;;;1.43;;
11267;SDS011;49397;47.474;9.416;2022-11-21T02:13:53;3.70;;;1.83;;
11267;SDS011;49397;47.474;9.416;2022-11-21T02:16:20;1.60;;;1.50;;
11267;SDS011;49397;47.474;9.416;2022-11-21T02:18:45;1.77;;;1.67;;
11267;SDS011;49397;47.474;9.416;2022-11-21T02:21:30;2.40;;;1.50;;
11267;SDS011;49397;47.474;9.416;2022-11-21T02:26:37;1.57;;;1.57;;
11267;SDS011;49397;47.474;9.416;2022-11-21T02:29:02;1.50;;;1.50;;
11267;SDS011;49397;47.474;9.416;2022-11-21T02:31:28;1.70;;;1.60;;
11267;SDS011;49397;47.474;9.416;2022-11-21T02:33:53;1.70;;;1.60;;
11267;SDS011;49397;47.474;9.416;2022-11-21T02:39:09;1.60;;;1.50;;
11267;SDS011;49397;47.474;9.416;2022-11-21T02:41:40;1.50;;;1.40;;
11267;SDS011;49397;47.474;9.416;2022-11-21T02:44:32;1.43;;;1.43;;
11267;SDS011;49397;47.474;9.416;2022-11-21T02:47:04;1.63;;;1.20;;
11267;SDS011;49397;47.474;9.416;2022-11-21T02:49:33;2.10;;;1.60;;
11267;SDS011;49397;47.474;9.416;2022-11-21T02:52:04;2.37;;;1.67;;
11267;SDS011;49397;47.474;9.416;2022-11-21T02:54:30;1.70;;;1.60;;
11267;SDS011;49397;47.474;9.416;2022-11-21T02:56:55;1.60;;;1.50;;
11267;SDS011;49397;47.474;9.416;2022-11-21T02:59:21;1.20;;;1.20;;
11267;SDS011;49397;47.474;9.416;2022-11-21T03:01:47;1.50;;;1.50;;
11267;SDS011;49397;47.474;9.416;2022-11-21T03:04:13;1.50;;;1.50;;
11267;SDS011;49397;47.474;9.416;2022-11-21T03:06:38;1.30;;;1.30;;
11267;SDS011;49397;47.474;9.416;2022-11-21T03:09:04;1.30;;;1.30;;
11267;SDS011;49397;47.474;9.416;2022-11-21T03:11:29;1.53;;;1.43;;
11267;SDS011;49397;47.474;9.416;2022-11-21T03:13:55;1.80;;;1.33;;
11267;SDS011;49397;47.474;9.416;2022-11-21T03:16:20;2.50;;;1.50;;
11267;SDS011;49397;47.474;9.416;2022-11-21T03:18:46;1.43;;;1.43;;
11267;SDS011;49397;47.474;9.416;2022-11-21T03:21:11;2.60;;;1.90;;
11267;SDS011;49397;47.474;9.416;2022-11-21T03:23:37;2.50;;;1.70;;
11267;SDS011;49397;47.474;9.416;2022-11-21T03:26:02;1.77;;;1.60;;
11267;SDS011;49397;47.474;9.416;2022-11-21T03:28:27;2.90;;;1.60;;
11267;SDS011;49397;47.474;9.416;2022-11-21T03:30:53;1.40;;;1.40;;
11267;SDS011;49397;47.474;9.416;2022-11-21T03:33:19;1.80;;;1.67;;
11267;SDS011;49397;47.474;9.416;2022-11-21T03:35:44;1.73;;;1.40;;
11267;SDS011;49397;47.474;9.416;2022-11-21T03:38:12;1.77;;;1.67;;
11267;SDS011;49397;47.474;9.416;2022-11-21T03:40:37;3.87;;;1.80;;
11267;SDS011;49397;47.474;9.416;2022-11-21T03:43:03;2.23;;;1.40;;
11267;SDS011;49397;47.474;9.416;2022-11-21T03:45:30;4.20;;;1.67;;
11267;SDS011;49397;47.474;9.416;2022-11-21T03:47:55;1.30;;;1.30;;
11267;SDS011;49397;47.474;9.416;2022-11-21T03:50:21;1.53;;;1.43;;
11267;SDS011;49397;47.474;9.416;2022-11-21T03:52:46;4.87;;;1.77;;
11267;SDS011;49397;47.474;9.416;2022-11-21T03:55:12;3.17;;;1.83;;
11267;SDS011;49397;47.474;9.416;2022-11-21T03:57:38;1.73;;;1.60;;
11267;SDS011;49397;47.474;9.416;2022-11-21T04:00:03;1.60;;;1.50;;
11267;SDS011;49397;47.474;9.416;2022-11-21T04:02:29;1.27;;;1.23;;
11267;SDS011;49397;47.474;9.416;2022-11-21T04:04:54;1.30;;;1.30;;
11267;SDS011;49397;47.474;9.416;2022-11-21T04:07:20;1.53;;;1.40;;
11267;SDS011;49397;47.474;9.416;2022-11-21T04:09:45;1.77;;;1.67;;
11267;SDS011;49397;47.474;9.416;2022-11-21T04:12:11;1.33;;;1.30;;
11267;SDS011;49397;47.474;9.416;2022-11-21T04:14:36;1.97;;;1.50;;
11267;SDS011;49397;47.474;9.416;2022-11-21T04:17:02;1.53;;;1.43;;
11267;SDS011;49397;47.474;9.416;2022-11-21T04:19:27;1.60;;;1.50;;
11267;SDS011;49397;47.474;9.416;2022-11-21T04:21:53;1.40;;;1.40;;
11267;SDS011;49397;47.474;9.416;2022-11-21T04:24:18;2.00;;;1.40;;
11267;SDS011;49397;47.474;9.416;2022-11-21T04:26:43;5.33;;;2.00;;
11267;SDS011;49397;47.474;9.416;2022-11-21T04:29:09;1.60;;;1.50;;
11267;SDS011;49397;47.474;9.416;2022-11-21T04:31:34;1.70;;;1.60;;
11267;SDS011;49397;47.474;9.416;2022-11-21T04:34:00;2.30;;;1.80;;
11267;SDS011;49397;47.474;9.416;2022-11-21T04:36:26;1.57;;;1.53;;
11267;SDS011;49397;47.474;9.416;2022-11-21T04:38:52;1.50;;;1.40;;
11267;SDS011;49397;47.474;9.416;2022-11-21T04:41:17;1.40;;;1.40;;
11267;SDS011;49397;47.474;9.416;2022-11-21T04:43:42;3.13;;;1.73;;
11267;SDS011;49397;47.474;9.416;2022-11-21T04:46:08;1.53;;;1.50;;
11267;SDS011;49397;47.474;9.416;2022-11-21T04:48:33;1.90;;;1.70;;
11267;SDS011;49397;47.474;9.416;2022-11-21T04:50:59;2.10;;;1.90;;
11267;SDS011;49397;47.474;9.416;2022-11-21T04:53:24;1.63;;;1.53;;
11267;SDS011;49397;47.474;9.416;2022-11-21T04:55:50;3.30;;;1.97;;
11267;SDS011;49397;47.474;9.416;2022-11-21T04:58:15;4.37;;;1.77;;
11267;SDS011;49397;47.474;9.416;2022-11-21T05:00:41;2.03;;;1.63;;
11267;SDS011;49397;47.474;9.416;2022-11-21T05:03:06;2.43;;;1.90;;
11267;SDS011;49397;47.474;9.416;2022-11-21T05:05:32;2.17;;;1.77;;
11267;SDS011;49397;47.474;9.416;2022-11-21T05:07:57;4.17;;;2.00;;
11267;SDS011;49397;47.474;9.416;2022-11-21T05:10:23;2.67;;;2.43;;
11267;SDS011;49397;47.474;9.416;2022-11-21T05:12:55;1.90;;;1.80;;
11267;SDS011;49397;47.474;9.416;2022-11-21T05:15:42;3.80;;;1.70;;
11267;SDS011;49397;47.474;9.416;2022-11-21T05:18:08;1.90;;;1.67;;
11267;SDS011;49397;47.474;9.416;2022-11-21T05:20:34;4.30;;;2.03;;
11267;SDS011;49397;47.474;9.416;2022-11-21T05:22:59;3.07;;;1.70;;
11267;SDS011;49397;47.474;9.416;2022-11-21T05:25:25;1.57;;;1.47;;
11267;SDS011;49397;47.474;9.416;2022-11-21T05:27:50;2.10;;;1.90;;
11267;SDS011;49397;47.474;9.416;2022-11-21T05:30:20;1.50;;;1.40;;
11267;SDS011;49397;47.474;9.416;2022-11-21T05:32:45;3.37;;;2.00;;
11267;SDS011;49397;47.474;9.416;2022-11-21T05:35:11;5.67;;;1.80;;
11267;SDS011;49397;47.474;9.416;2022-11-21T05:37:36;3.63;;;1.90;;
11267;SDS011;49397;47.474;9.416;2022-11-21T05:40:01;1.70;;;1.57;;
11267;SDS011;49397;47.474;9.416;2022-11-21T05:42:27;1.77;;;1.67;;
11267;SDS011;49397;47.474;9.416;2022-11-21T05:45:11;2.97;;;1.90;;
11267;SDS011;49397;47.474;9.416;2022-11-21T05:47:36;5.57;;;1.77;;
11267;SDS011;49397;47.474;9.416;2022-11-21T05:50:02;3.17;;;1.67;;
11267;SDS011;49397;47.474;9.416;2022-11-21T05:52:28;1.67;;;1.60;;
11267;SDS011;49397;47.474;9.416;2022-11-21T05:54:53;1.80;;;1.50;;
11267;SDS011;49397;47.474;9.416;2022-11-21T05:57:19;3.37;;;2.17;;
11267;SDS011;49397;47.474;9.416;2022-11-21T05:59:44;3.77;;;2.23;;
11267;SDS011;49397;47.474;9.416;2022-11-21T06:02:10;2.47;;;1.93;;
11267;SDS011;49397;47.474;9.416;2022-11-21T06:04:53;2.17;;;1.97;;
11267;SDS011;49397;47.474;9.416;2022-11-21T06:07:19;3.30;;;1.93;;
11267;SDS011;49397;47.474;9.416;2022-11-21T06:09:44;3.20;;;1.70;;
11267;SDS011;49397;47.474;9.416;2022-11-21T06:12:10;2.10;;;1.70;;
11267;SDS011;49397;47.474;9.416;2022-11-21T06:14:35;1.93;;;1.80;;
11267;SDS011;49397;47.474;9.416;2022-11-21T06:17:01;4.30;;;1.77;;
11267;SDS011;49397;47.474;9.416;2022-11-21T06:19:26;2.83;;;1.63;;
11267;SDS011;49397;47.474;9.416;2022-11-21T06:21:52;2.47;;;1.80;;
11267;SDS011;49397;47.474;9.416;2022-11-21T06:24:17;3.33;;;1.47;;
11267;SDS011;49397;47.474;9.416;2022-11-21T06:26:42;2.40;;;1.63;;
11267;SDS011;49397;47.474;9.416;2022-11-21T06:29:11;1.33;;;1.33;;
11267;SDS011;49397;47.474;9.416;2022-11-21T06:31:36;6.43;;;1.90;;
11267;SDS011;49397;47.474;9.416;2022-11-21T06:34:02;4.90;;;2.13;;
11267;SDS011;49397;47.474;9.416;2022-11-21T06:36:28;1.50;;;1.50;;
11267;SDS011;49397;47.474;9.416;2022-11-21T06:38:53;1.97;;;1.80;;
11267;SDS011;49397;47.474;9.416;2022-11-21T06:41:23;2.00;;;1.73;;
11267;SDS011;49397;47.474;9.416;2022-11-21T06:43:50;2.00;;;1.60;;
11267;SDS011;49397;47.474;9.416;2022-11-21T06:46:16;3.87;;;2.07;;
11267;SDS011;49397;47.474;9.416;2022-11-21T06:48:41;2.27;;;1.67;;
11267;SDS011;49397;47.474;9.416;2022-11-21T06:51:21;1.80;;;1.57;;
11267;SDS011;49397;47.474;9.416;2022-11-21T06:53:51;1.70;;;1.60;;
11267;SDS011;49397;47.474;9.416;2022-11-21T06:56:21;3.37;;;1.90;;
11267;SDS011;49397;47.474;9.416;2022-11-21T06:58:48;1.43;;;1.20;;
11267;SDS011;49397;47.474;9.416;2022-11-21T07:01:13;2.60;;;1.87;;
11267;SDS011;49397;47.474;9.416;2022-11-21T07:03:39;7.00;;;1.90;;
11267;SDS011;49397;47.474;9.416;2022-11-21T07:06:04;2.07;;;1.97;;
11267;SDS011;49397;47.474;9.416;2022-11-21T07:08:31;1.30;;;1.30;;
11267;SDS011;49397;47.474;9.416;2022-11-21T07:11:00;2.37;;;1.80;;
11267;SDS011;49397;47.474;9.416;2022-11-21T07:13:26;1.87;;;1.77;;
11267;SDS011;49397;47.474;9.416;2022-11-21T07:15:53;1.90;;;1.67;;
11267;SDS011;49397;47.474;9.416;2022-11-21T07:18:20;5.00;;;1.80;;
11267;SDS011;49397;47.474;9.416;2022-11-21T07:20:46;2.87;;;1.53;;
11267;SDS011;49397;47.474;9.416;2022-11-21T07:23:13;2.73;;;1.83;;
11267;SDS011;49397;47.474;9.416;2022-11-21T07:25:38;1.77;;;1.67;;
11267;SDS011;49397;47.474;9.416;2022-11-21T07:28:05;2.27;;;1.50;;
11267;SDS011;49397;47.474;9.416;2022-11-21T07:30:32;4.73;;;2.03;;
11267;SDS011;49397;47.474;9.416;2022-11-21T07:33:01;2.13;;;1.60;;
11267;SDS011;49397;47.474;9.416;2022-11-21T07:35:29;1.40;;;1.40;;
11267;SDS011;49397;47.474;9.416;2022-11-21T07:37:56;1.73;;;1.67;;
11267;SDS011;49397;47.474;9.416;2022-11-21T07:40:21;2.43;;;1.80;;
11267;SDS011;49397;47.474;9.416;2022-11-21T07:42:47;2.67;;;1.87;;
11267;SDS011;49397;47.474;9.416;2022-11-21T07:45:13;2.27;;;2.07;;
11267;SDS011;49397;47.474;9.416;2022-11-21T07:47:40;1.77;;;1.70;;
11267;SDS011;49397;47.474;9.416;2022-11-21T07:50:06;2.93;;;1.80;;
11267;SDS011;49397;47.474;9.416;2022-11-21T07:52:33;3.23;;;1.43;;
11267;SDS011;49397;47.474;9.416;2022-11-21T07:54:59;1.93;;;1.80;;
11267;SDS011;49397;47.474;9.416;2022-11-21T07:57:26;4.33;;;1.57;;
11267;SDS011;49397;47.474;9.416;2022-11-21T07:59:53;1.93;;;1.50;;
11267;SDS011;49397;47.474;9.416;2022-11-21T08:02:19;3.40;;;1.70;;
11267;SDS011;49397;47.474;9.416;2022-11-21T08:04:46;4.50;;;1.93;;
11267;SDS011;49397;47.474;9.416;2022-11-21T08:07:12;2.23;;;1.60;;
11267;SDS011;49397;47.474;9.416;2022-11-21T08:09:38;1.90;;;1.70;;
11267;SDS011;49397;47.474;9.416;2022-11-21T08:12:04;2.40;;;1.60;;
11267;SDS011;49397;47.474;9.416;2022-11-21T08:14:29;3.00;;;1.90;;
11267;SDS011;49397;47.474;9.416;2022-11-21T08:16:55;2.13;;;1.60;;
11267;SDS011;49397;47.474;9.416;2022-11-21T08:19:20;1.93;;;1.83;;
11267;SDS011;49397;47.474;9.416;2022-11-21T08:21:46;2.53;;;1.87;;
11267;SDS011;49397;47.474;9.416;2022-11-21T08:24:11;2.47;;;1.87;;
11267;SDS011;49397;47.474;9.416;2022-11-21T08:26:39;1.70;;;1.60;;
11267;SDS011;49397;47.474;9.416;2022-11-21T08:29:05;7.33;;;1.83;;
11267;SDS011;49397;47.474;9.416;2022-11-21T08:31:31;3.10;;;1.87;;
11267;SDS011;49397;47.474;9.416;2022-11-21T08:33:57;4.43;;;1.63;;
11267;SDS011;49397;47.474;9.416;2022-11-21T08:36:23;2.83;;;1.83;;
11267;SDS011;49397;47.474;9.416;2022-11-21T08:38:48;1.63;;;1.53;;
11267;SDS011;49397;47.474;9.416;2022-11-21T08:41:14;2.30;;;1.60;;
11267;SDS011;49397;47.474;9.416;2022-11-21T08:43:58;4.33;;;1.90;;
11267;SDS011;49397;47.474;9.416;2022-11-21T08:46:23;2.93;;;1.60;;
11267;SDS011;49397;47.474;9.416;2022-11-21T08:48:55;3.70;;;1.77;;
11267;SDS011;49397;47.474;9.416;2022-11-21T08:51:21;2.40;;;1.57;;
11267;SDS011;49397;47.474;9.416;2022-11-21T08:53:47;1.80;;;1.70;;
11267;SDS011;49397;47.474;9.416;2022-11-21T08:56:12;2.43;;;1.70;;
11267;SDS011;49397;47.474;9.416;2022-11-21T08:58:38;2.43;;;1.70;;
11267;SDS011;49397;47.474;9.416;2022-11-21T09:01:04;2.53;;;1.67;;
11267;SDS011;49397;47.474;9.416;2022-11-21T09:03:29;1.73;;;1.63;;
11267;SDS011;49397;47.474;9.416;2022-11-21T09:05:56;3.83;;;1.80;;
11267;SDS011;49397;47.474;9.416;2022-11-21T09:08:21;2.40;;;1.60;;
11267;SDS011;49397;47.474;9.416;2022-11-21T09:10:47;6.47;;;2.27;;
11267;SDS011;49397;47.474;9.416;2022-11-21T09:13:12;4.07;;;2.00;;
11267;SDS011;49397;47.474;9.416;2022-11-21T09:15:41;5.03;;;1.67;;
11267;SDS011;49397;47.474;9.416;2022-11-21T09:18:25;1.90;;;1.80;;
11267;SDS011;49397;47.474;9.416;2022-11-21T09:20:50;2.40;;;1.90;;
11267;SDS011;49397;47.474;9.416;2022-11-21T09:23:16;2.03;;;1.80;;
11267;SDS011;49397;47.474;9.416;2022-11-21T09:25:41;3.00;;;1.77;;
11267;SDS011;49397;47.474;9.416;2022-11-21T09:28:08;1.77;;;1.67;;
11267;SDS011;49397;47.474;9.416;2022-11-21T09:30:35;1.60;;;1.50;;
11267;SDS011;49397;47.474;9.416;2022-11-21T09:33:01;2.27;;;1.93;;
11267;SDS011;49397;47.474;9.416;2022-11-21T09:35:28;2.53;;;2.00;;
11267;SDS011;49397;47.474;9.416;2022-11-21T09:37:54;2.00;;;1.90;;
11267;SDS011;49397;47.474;9.416;2022-11-21T09:40:19;1.60;;;1.30;;
11267;SDS011;49397;47.474;9.416;2022-11-21T09:48:27;1.70;;;1.60;;
11267;SDS011;49397;47.474;9.416;2022-11-21T09:51:00;1.80;;;1.60;;
11267;SDS011;49397;47.474;9.416;2022-11-21T09:53:31;1.77;;;1.40;;
11267;SDS011;49397;47.474;9.416;2022-11-21T09:56:05;2.83;;;1.80;;
11267;SDS011;49397;47.474;9.416;2022-11-21T09:58:41;2.00;;;1.77;;
11267;SDS011;49397;47.474;9.416;2022-11-21T10:01:13;3.20;;;1.90;;
11267;SDS011;49397;47.474;9.416;2022-11-21T10:03:46;3.30;;;2.03;;
11267;SDS011;49397;47.474;9.416;2022-11-21T10:06:20;2.13;;;1.70;;
11267;SDS011;49397;47.474;9.416;2022-11-21T10:09:00;1.77;;;1.63;;
11267;SDS011;49397;47.474;9.416;2022-11-21T10:25:23;2.23;;;2.03;;
11267;SDS011;49397;47.474;9.416;2022-11-21T10:27:52;1.70;;;1.60;;
11267;SDS011;49397;47.474;9.416;2022-11-21T10:30:38;1.73;;;1.63;;
11267;SDS011;49397;47.474;9.416;2022-11-21T10:33:08;2.03;;;1.87;;
11267;SDS011;49397;47.474;9.416;2022-11-21T10:35:46;2.13;;;1.90;;
11267;SDS011;49397;47.474;9.416;2022-11-21T10:38:22;2.23;;;1.90;;
11267;SDS011;49397;47.474;9.416;2022-11-21T10:40:50;2.97;;;1.97;;
11267;SDS011;49397;47.474;9.416;2022-11-21T10:46:05;4.43;;;2.57;;
11267;SDS011;49397;47.474;9.416;2022-11-21T10:48:30;2.00;;;1.80;;
11267;SDS011;49397;47.474;9.416;2022-11-21T10:51:32;1.90;;;1.80;;
11267;SDS011;49397;47.474;9.416;2022-11-21T10:56:49;1.53;;;1.47;;
11267;SDS011;49397;47.474;9.416;2022-11-21T10:59:19;2.80;;;2.00;;
11267;SDS011;49397;47.474;9.416;2022-11-21T11:01:55;2.87;;;2.37;;
11267;SDS011;49397;47.474;9.416;2022-11-21T11:04:22;2.23;;;2.00;;
11267;SDS011;49397;47.474;9.416;2022-11-21T11:06:50;2.20;;;2.00;;
11267;SDS011;49397;47.474;9.416;2022-11-21T11:11:52;2.07;;;1.90;;
11267;SDS011;49397;47.474;9.416;2022-11-21T11:14:38;2.93;;;1.90;;
11267;SDS011;49397;47.474;9.416;2022-11-21T11:17:03;8.47;;;2.03;;
11267;SDS011;49397;47.474;9.416;2022-11-21T11:19:29;11.27;;;2.40;;
11267;SDS011;49397;47.474;9.416;2022-11-21T11:21:55;3.60;;;1.83;;
11267;SDS011;49397;47.474;9.416;2022-11-21T11:24:22;1.70;;;1.60;;
11267;SDS011;49397;47.474;9.416;2022-11-21T11:26:59;2.20;;;1.73;;
11267;SDS011;49397;47.474;9.416;2022-11-21T11:29:30;2.83;;;2.07;;
11267;SDS011;49397;47.474;9.416;2022-11-21T11:31:59;1.70;;;1.60;;
11267;SDS011;49397;47.474;9.416;2022-11-21T11:34:38;1.90;;;1.80;;
11267;SDS011;49397;47.474;9.416;2022-11-21T11:39:41;2.23;;;2.03;;
11267;SDS011;49397;47.474;9.416;2022-11-21T11:42:36;2.17;;;2.00;;
11267;SDS011;49397;47.474;9.416;2022-11-21T11:45:44;3.10;;;2.60;;
11267;SDS011;49397;47.474;9.416;2022-11-21T11:48:34;2.47;;;2.27;;
11267;SDS011;49397;47.474;9.416;2022-11-21T11:51:05;3.00;;;2.17;;
11267;SDS011;49397;47.474;9.416;2022-11-21T11:53:44;2.33;;;2.10;;
11267;SDS011;49397;47.474;9.416;2022-11-21T11:58:44;3.67;;;2.10;;
11267;SDS011;49397;47.474;9.416;2022-11-21T12:04:02;2.00;;;1.80;;
11267;SDS011;49397;47.474;9.416;2022-11-21T12:06:36;2.30;;;2.20;;
11267;SDS011;49397;47.474;9.416;2022-11-21T12:14:47;2.47;;;2.23;;
11267;SDS011;49397;47.474;9.416;2022-11-21T12:20:26;4.93;;;2.33;;
11267;SDS011;49397;47.474;9.416;2022-11-21T12:23:00;2.30;;;2.10;;
11267;SDS011;49397;47.474;9.416;2022-11-21T12:25:28;2.20;;;2.10;;
11267;SDS011;49397;47.474;9.416;2022-11-21T12:27:57;3.30;;;2.13;;
11267;SDS011;49397;47.474;9.416;2022-11-21T12:33:33;2.30;;;2.10;;
11267;SDS011;49397;47.474;9.416;2022-11-21T12:39:33;2.40;;;2.20;;
11267;SDS011;49397;47.474;9.416;2022-11-21T12:42:16;4.23;;;3.10;;
11267;SDS011;49397;47.474;9.416;2022-11-21T12:47:54;4.30;;;2.43;;
11267;SDS011;49397;47.474;9.416;2022-11-21T12:50:56;2.63;;;2.40;;
11267;SDS011;49397;47.474;9.416;2022-11-21T12:54:03;4.10;;;2.30;;
11267;SDS011;49397;47.474;9.416;2022-11-21T12:59:56;2.30;;;2.10;;
11267;SDS011;49397;47.474;9.416;2022-11-21T13:05:36;3.63;;;1.93;;
11267;SDS011;49397;47.474;9.416;2022-11-21T13:08:06;2.73;;;2.10;;
11267;SDS011;49397;47.474;9.416;2022-11-21T13:10:35;2.30;;;2.20;;
11267;SDS011;49397;47.474;9.416;2022-11-21T13:13:36;2.07;;;1.97;;
11267;SDS011;49397;47.474;9.416;2022-11-21T13:16:17;4.10;;;2.40;;
11267;SDS011;49397;47.474;9.416;2022-11-21T13:19:10;2.57;;;2.37;;
11267;SDS011;49397;47.474;9.416;2022-11-21T13:21:45;1.77;;;1.67;;
11267;SDS011;49397;47.474;9.416;2022-11-21T13:32:51;2.43;;;2.00;;
11267;SDS011;49397;47.474;9.416;2022-11-21T13:45:43;2.30;;;2.10;;
11267;SDS011;49397;47.474;9.416;2022-11-21T13:56:30;3.23;;;2.17;;
11267;SDS011;49397;47.474;9.416;2022-11-21T13:59:21;3.57;;;2.27;;
11267;SDS011;49397;47.474;9.416;2022-11-21T14:07:37;2.30;;;2.17;;
11267;SDS011;49397;47.474;9.416;2022-11-21T14:10:28;2.13;;;1.93;;
11267;SDS011;49397;47.474;9.416;2022-11-21T14:12:57;2.27;;;2.17;;
11267;SDS011;49397;47.474;9.416;2022-11-21T14:18:20;2.73;;;2.33;;
11267;SDS011;49397;47.474;9.416;2022-11-21T14:23:23;3.40;;;2.77;;
11267;SDS011;49397;47.474;9.416;2022-11-21T14:26:01;2.30;;;2.10;;
11267;SDS011;49397;47.474;9.416;2022-11-21T14:28:30;3.23;;;2.10;;
11267;SDS011;49397;47.474;9.416;2022-11-21T14:31:00;2.93;;;2.13;;
11267;SDS011;49397;47.474;9.416;2022-11-21T14:38:29;2.60;;;2.03;;
11267;SDS011;49397;47.474;9.416;2022-11-21T14:46:35;3.30;;;2.27;;
11267;SDS011;49397;47.474;9.416;2022-11-21T14:54:41;3.80;;;1.73;;
11267;SDS011;49397;47.474;9.416;2022-11-21T14:57:17;2.40;;;2.07;;
11267;SDS011;49397;47.474;9.416;2022-11-21T14:59:46;2.23;;;2.13;;
11267;SDS011;49397;47.474;9.416;2022-11-21T15:02:16;2.97;;;2.00;;
11267;SDS011;49397;47.474;9.416;2022-11-21T15:04:44;3.60;;;1.80;;
11267;SDS011;49397;47.474;9.416;2022-11-21T15:07:18;2.00;;;1.90;;
11267;SDS011;49397;47.474;9.416;2022-11-21T15:09:52;2.27;;;2.17;;
11267;SDS011;49397;47.474;9.416;2022-11-21T15:15:05;2.70;;;2.17;;
11267;SDS011;49397;47.474;9.416;2022-11-21T15:17:48;2.17;;;2.00;;
11267;SDS011;49397;47.474;9.416;2022-11-21T15:20:19;2.10;;;1.97;;
11267;SDS011;49397;47.474;9.416;2022-11-21T15:22:46;2.33;;;2.23;;
11267;SDS011;49397;47.474;9.416;2022-11-21T15:27:41;1.97;;;1.87;;
11267;SDS011;49397;47.474;9.416;2022-11-21T15:30:28;2.97;;;2.03;;
11267;SDS011;49397;47.474;9.416;2022-11-21T15:38:23;4.03;;;2.00;;
11267;SDS011;49397;47.474;9.416;2022-11-21T15:46:15;2.10;;;1.90;;
11267;SDS011;49397;47.474;9.416;2022-11-21T15:48:58;2.93;;;2.13;;
11267;SDS011;49397;47.474;9.416;2022-11-21T15:51:26;3.33;;;2.00;;
11267;SDS011;49397;47.474;9.416;2022-11-21T15:53:58;3.90;;;2.40;;
11267;SDS011;49397;47.474;9.416;2022-11-21T15:56:24;2.20;;;1.87;;
11267;SDS011;49397;47.474;9.416;2022-11-21T15:58:50;2.43;;;2.23;;
11267;SDS011;49397;47.474;9.416;2022-11-21T16:01:19;3.40;;;2.23;;
11267;SDS011;49397;47.474;9.416;2022-11-21T16:03:50;3.03;;;1.93;;
11267;SDS011;49397;47.474;9.416;2022-11-21T16:06:17;7.33;;;2.20;;
11267;SDS011;49397;47.474;9.416;2022-11-21T16:08:44;5.43;;;2.50;;
11267;SDS011;49397;47.474;9.416;2022-11-21T16:11:29;3.27;;;2.20;;
11267;SDS011;49397;47.474;9.416;2022-11-21T16:13:57;3.30;;;2.80;;
11267;SDS011;49397;47.474;9.416;2022-11-21T16:16:25;2.00;;;1.90;;
11267;SDS011;49397;47.474;9.416;2022-11-21T16:18:54;2.40;;;2.20;;
11267;SDS011;49397;47.474;9.416;2022-11-21T16:21:20;3.47;;;2.47;;
11267;SDS011;49397;47.474;9.416;2022-11-21T16:23:45;2.27;;;2.00;;
11267;SDS011;49397;47.474;9.416;2022-11-21T16:26:10;3.20;;;2.10;;
11267;SDS011;49397;47.474;9.416;2022-11-21T16:28:36;3.30;;;2.70;;
11267;SDS011;49397;47.474;9.416;2022-11-21T16:31:03;2.50;;;2.07;;
11267;SDS011;49397;47.474;9.416;2022-11-21T16:33:30;4.73;;;2.13;;
11267;SDS011;49397;47.474;9.416;2022-11-21T16:35:56;2.57;;;2.30;;
11267;SDS011;49397;47.474;9.416;2022-11-21T16:38:25;3.97;;;3.53;;
11267;SDS011;49397;47.474;9.416;2022-11-21T16:40:53;2.43;;;2.23;;
11267;SDS011;49397;47.474;9.416;2022-11-21T16:43:23;2.30;;;2.20;;
11267;SDS011;49397;47.474;9.416;2022-11-21T16:45:49;2.53;;;2.33;;
11267;SDS011;49397;47.474;9.416;2022-11-21T16:48:15;4.67;;;2.60;;
11267;SDS011;49397;47.474;9.416;2022-11-21T16:50:40;4.20;;;2.70;;
11267;SDS011;49397;47.474;9.416;2022-11-21T16:53:06;2.70;;;2.50;;
11267;SDS011;49397;47.474;9.416;2022-11-21T16:55:31;2.83;;;2.40;;
11267;SDS011;49397;47.474;9.416;2022-11-21T16:57:57;2.80;;;2.40;;
11267;SDS011;49397;47.474;9.416;2022-11-21T17:00:24;4.50;;;2.80;;
11267;SDS011;49397;47.474;9.416;2022-11-21T17:02:53;3.93;;;2.30;;
11267;SDS011;49397;47.474;9.416;2022-11-21T17:05:19;3.70;;;2.13;;
11267;SDS011;49397;47.474;9.416;2022-11-21T17:07:44;4.67;;;2.60;;
11267;SDS011;49397;47.474;9.416;2022-11-21T17:10:11;4.03;;;3.17;;
11267;SDS011;49397;47.474;9.416;2022-11-21T17:12:37;9.07;;;4.00;;
11267;SDS011;49397;47.474;9.416;2022-11-21T17:15:04;2.70;;;2.33;;
11267;SDS011;49397;47.474;9.416;2022-11-21T17:17:30;4.63;;;2.60;;
11267;SDS011;49397;47.474;9.416;2022-11-21T17:19:56;5.60;;;3.40;;
11267;SDS011;49397;47.474;9.416;2022-11-21T17:22:21;4.10;;;2.40;;
11267;SDS011;49397;47.474;9.416;2022-11-21T17:24:49;2.50;;;2.30;;